Terminal Aerodrome Forecast
Issued by NWS Charleston, SC

Home | Current Version | Previous Version | Text Only | Print | Product List | Glossary On
Versions: 1 2 3 4 5 6 7 8 9 10 11 12 13 14 15 16 17 18 19
000
FTUS42 KCHS 271737
TAFCHS
TAF
KCHS 271737Z 2718/2818 04008KT P6SM SCT035 BKN220
     FM280800 03011G16KT P6SM FEW040 BKN250
     FM281400 04013KT P6SM BKN040 OVC100=

USA.gov is the U.S. government's official web portal to all federal, state and local government web resources and services.